createdAt,value
2022-12-25T00:01:45.475Z,6.57
2022-12-25T00:04:12.943Z,6.63
2022-12-25T00:06:40.723Z,6.67
2022-12-25T00:09:08.179Z,6.68
2022-12-25T00:11:35.948Z,6.73
2022-12-25T00:14:03.689Z,6.77
2022-12-25T00:16:31.509Z,6.81
2022-12-25T00:19:00.343Z,6.79
2022-12-25T00:21:28.487Z,6.78
2022-12-25T00:23:58.629Z,6.76
2022-12-25T00:26:27.815Z,6.73
2022-12-25T00:28:57.614Z,6.69
2022-12-25T00:31:25.887Z,6.64
2022-12-25T00:33:53.646Z,6.58
2022-12-25T00:36:23.145Z,6.55
2022-12-25T00:38:50.843Z,6.53
2022-12-25T00:41:24.807Z,6.52
2022-12-25T00:43:52.327Z,6.52
2022-12-25T00:46:20.082Z,6.52
2022-12-25T00:48:47.970Z,6.53
2022-12-25T00:51:17.293Z,6.52
2022-12-25T00:53:44.825Z,6.53
2022-12-25T00:56:12.646Z,6.57
2022-12-25T00:58:40.291Z,6.60
2022-12-25T01:01:11.175Z,6.61
2022-12-25T01:03:38.937Z,6.63
2022-12-25T01:06:08.287Z,6.67
2022-12-25T01:08:38.923Z,6.72
2022-12-25T01:11:08.831Z,6.75
2022-12-25T01:13:37.275Z,6.78
2022-12-25T01:16:11.678Z,6.79
2022-12-25T01:18:39.342Z,6.81
2022-12-25T01:21:15.346Z,6.80
2022-12-25T01:23:44.393Z,6.78
2022-12-25T01:26:14.599Z,6.75
2022-12-25T01:28:42.158Z,6.73
2022-12-25T01:31:14.176Z,6.69
2022-12-25T01:33:43.082Z,6.70
2022-12-25T01:36:20.659Z,6.70
2022-12-25T01:38:49.230Z,6.69
2022-12-25T01:41:20.984Z,6.70
2022-12-25T01:44:11.056Z,6.74
2022-12-25T01:46:46.999Z,6.79
2022-12-25T01:49:28.860Z,6.84
2022-12-25T01:52:07.593Z,6.86
2022-12-25T01:54:55.969Z,6.86
2022-12-25T01:57:35.280Z,6.89
2022-12-25T02:00:13.981Z,6.88
2022-12-25T02:02:44.803Z,6.88
2022-12-25T02:05:24.671Z,6.88
2022-12-25T02:07:52.897Z,6.86
2022-12-25T02:10:20.688Z,6.84
2022-12-25T02:12:49.091Z,6.82
2022-12-25T02:15:21.036Z,6.80
2022-12-25T02:18:08.928Z,6.77
2022-12-25T02:20:50.833Z,6.75
2022-12-25T02:23:53.182Z,6.71
2022-12-25T02:26:47.311Z,6.67
2022-12-25T02:29:32.229Z,6.61
2022-12-25T02:32:14.578Z,6.55
2022-12-25T02:34:52.881Z,6.47
2022-12-25T02:37:38.244Z,6.38
2022-12-25T02:40:29.631Z,6.36
2022-12-25T02:43:33.255Z,6.35
2022-12-25T02:46:29.609Z,6.34
2022-12-25T02:49:20.006Z,6.35
2022-12-25T02:52:11.211Z,6.40
2022-12-25T02:55:01.852Z,6.43
2022-12-25T02:57:53.579Z,6.48
2022-12-25T03:00:47.161Z,6.53
2022-12-25T03:03:39.233Z,6.59
2022-12-25T03:06:32.686Z,6.66
2022-12-25T03:09:26.228Z,6.72
2022-12-25T03:12:20.275Z,6.77
2022-12-25T03:15:15.728Z,6.82
2022-12-25T03:17:53.049Z,6.84
2022-12-25T03:20:44.704Z,6.83
2022-12-25T03:23:47.742Z,6.79
2022-12-25T03:26:41.688Z,6.74
2022-12-25T03:29:16.716Z,6.72
2022-12-25T03:31:53.359Z,6.71
2022-12-25T03:35:03.601Z,6.69
2022-12-25T03:38:14.215Z,6.69
2022-12-25T03:41:31.407Z,6.65
2022-12-25T03:44:46.434Z,6.63
2022-12-25T03:47:34.574Z,6.58
2022-12-25T03:50:57.019Z,6.52
2022-12-25T03:53:51.234Z,6.48
2022-12-25T03:56:38.731Z,6.43
2022-12-25T03:59:25.065Z,6.38
2022-12-25T04:02:11.661Z,6.33
2022-12-25T04:04:58.105Z,6.30
2022-12-25T04:07:44.018Z,6.28
2022-12-25T04:10:30.414Z,6.30
2022-12-25T04:13:16.225Z,6.31
2022-12-25T04:16:02.187Z,6.34
2022-12-25T04:18:48.746Z,6.35
2022-12-25T04:21:34.955Z,6.37
2022-12-25T04:24:20.594Z,6.42
2022-12-25T04:27:06.358Z,6.48
2022-12-25T04:29:52.420Z,6.53
2022-12-25T04:32:38.977Z,6.57
2022-12-25T04:35:25.703Z,6.63
2022-12-25T04:37:53.324Z,6.63
2022-12-25T04:40:21.239Z,6.64
2022-12-25T04:42:51.771Z,6.65
2022-12-25T04:45:20.181Z,6.66
2022-12-25T04:47:47.827Z,6.65
2022-12-25T04:50:15.644Z,6.63
2022-12-25T04:52:43.200Z,6.61
2022-12-25T04:55:11.514Z,6.57
2022-12-25T04:57:39.948Z,6.53
2022-12-25T05:00:08.708Z,6.49
2022-12-25T05:02:36.910Z,6.44
2022-12-25T05:05:05.039Z,6.40
2022-12-25T05:07:33.502Z,6.37
2022-12-25T05:10:01.141Z,6.34
2022-12-25T05:12:28.896Z,6.32
2022-12-25T05:14:56.391Z,6.28
2022-12-25T05:17:24.070Z,6.25
2022-12-25T05:19:53.799Z,6.18
2022-12-25T05:22:21.572Z,6.13
2022-12-25T05:24:49.678Z,6.08
2022-12-25T05:27:17.138Z,6.06
2022-12-25T05:29:44.994Z,6.04
2022-12-25T05:32:14.519Z,5.99
2022-12-25T05:34:42.134Z,5.93
2022-12-25T05:37:09.732Z,5.93
2022-12-25T05:39:37.323Z,5.92
2022-12-25T05:42:05.221Z,5.97
2022-12-25T05:44:32.835Z,6.03
2022-12-25T05:47:00.596Z,6.07
2022-12-25T05:49:28.111Z,6.15
2022-12-25T05:51:55.721Z,6.22
2022-12-25T05:54:23.387Z,6.28
2022-12-25T05:56:50.953Z,6.30
2022-12-25T05:59:18.598Z,6.31
2022-12-25T06:01:46.242Z,6.34
2022-12-25T06:04:13.867Z,6.37
2022-12-25T06:06:41.460Z,6.40
2022-12-25T06:09:12.751Z,6.39
2022-12-25T06:11:40.721Z,6.39
2022-12-25T06:14:13.873Z,6.37
2022-12-25T06:16:41.863Z,6.35
2022-12-25T06:19:09.448Z,6.33
2022-12-25T06:21:37.258Z,6.33
2022-12-25T06:24:05.328Z,6.31
2022-12-25T06:26:33.228Z,6.32
2022-12-25T06:29:00.745Z,6.33
2022-12-25T06:31:28.501Z,6.33
2022-12-25T06:33:56.398Z,6.34
2022-12-25T06:36:27.306Z,6.31
2022-12-25T06:38:56.287Z,6.30
2022-12-25T06:41:27.339Z,6.32
2022-12-25T06:43:59.313Z,6.35
2022-12-25T06:46:29.083Z,6.31
2022-12-25T06:48:59.024Z,6.29
2022-12-25T06:51:31.003Z,6.28
2022-12-25T06:54:01.565Z,6.28
2022-12-25T06:56:30.445Z,6.29
2022-12-25T06:59:02.321Z,6.32
2022-12-25T07:01:46.617Z,6.35
2022-12-25T07:04:38.122Z,6.39
2022-12-25T07:07:09.338Z,6.40
2022-12-25T07:09:38.245Z,6.36
2022-12-25T07:12:19.664Z,6.37
2022-12-25T07:14:50.648Z,6.32
2022-12-25T07:17:19.833Z,6.32
2022-12-25T07:19:47.798Z,6.32
2022-12-25T07:22:16.245Z,6.29
2022-12-25T07:24:43.682Z,6.29
2022-12-25T07:27:11.422Z,6.29
2022-12-25T07:29:39.109Z,6.30
2022-12-25T07:32:07.082Z,6.33
2022-12-25T07:34:34.893Z,6.36
2022-12-25T07:37:02.366Z,6.39
2022-12-25T07:39:30.028Z,6.40
2022-12-25T07:41:57.675Z,6.42
2022-12-25T07:44:27.152Z,6.41
2022-12-25T07:46:54.752Z,6.39
2022-12-25T07:49:22.474Z,6.39
2022-12-25T07:51:50.154Z,6.41
2022-12-25T07:54:19.798Z,6.37
2022-12-25T07:56:52.605Z,6.40
2022-12-25T07:59:20.661Z,6.41
2022-12-25T08:01:50.132Z,6.35
2022-12-25T08:04:17.929Z,6.36
2022-12-25T08:06:45.393Z,6.40
2022-12-25T08:09:13.405Z,6.47
2022-12-25T08:11:46.715Z,6.52
2022-12-25T08:14:15.050Z,6.53
2022-12-25T08:16:42.720Z,6.55
2022-12-25T08:19:11.104Z,6.58
2022-12-25T08:21:39.186Z,6.64
2022-12-25T08:24:07.296Z,6.66
2022-12-25T08:26:35.046Z,6.73
2022-12-25T08:29:02.579Z,6.79
2022-12-25T08:31:33.020Z,6.73
2022-12-25T08:34:03.010Z,6.68
2022-12-25T08:36:31.083Z,6.62
2022-12-25T08:39:03.072Z,6.57
2022-12-25T08:41:28.294Z,6.54
2022-12-25T08:43:57.321Z,6.57
2022-12-25T08:46:24.911Z,6.50
2022-12-25T08:48:52.648Z,6.45
2022-12-25T08:51:22.029Z,6.43
2022-12-25T08:53:52.550Z,6.41
2022-12-25T08:56:20.465Z,6.47
2022-12-25T08:58:47.825Z,6.51
2022-12-25T09:01:15.554Z,6.53
2022-12-25T09:03:46.599Z,6.49
2022-12-25T09:06:16.535Z,6.48
2022-12-25T09:08:49.069Z,6.48
2022-12-25T09:11:14.956Z,6.55
2022-12-25T09:13:44.581Z,6.58
2022-12-25T09:16:16.805Z,6.60
2022-12-25T09:18:44.518Z,6.63
2022-12-25T09:21:15.163Z,6.65
2022-12-25T09:23:43.425Z,6.79
2022-12-25T09:26:14.616Z,6.85
2022-12-25T09:28:50.294Z,6.93
2022-12-25T09:31:14.607Z,7.03
2022-12-25T09:33:42.285Z,7.10
2022-12-25T09:36:10.872Z,7.16
2022-12-25T09:38:38.506Z,7.24
2022-12-25T09:41:29.737Z,7.32
2022-12-25T09:44:23.425Z,7.40
2022-12-25T09:46:59.716Z,7.50
2022-12-25T09:49:53.464Z,7.62
2022-12-25T09:52:29.522Z,7.60
2022-12-25T09:55:08.587Z,7.51
2022-12-25T09:57:36.087Z,7.41
2022-12-25T10:00:06.107Z,7.32
2022-12-25T10:03:16.949Z,7.30
2022-12-25T10:06:08.233Z,7.29
2022-12-25T10:08:58.845Z,7.26
2022-12-25T10:12:23.555Z,7.26
2022-12-25T10:15:17.856Z,7.24
2022-12-25T10:18:03.766Z,7.24
2022-12-25T10:20:51.755Z,7.27
2022-12-25T10:23:39.739Z,7.29
2022-12-25T10:26:22.621Z,7.32
2022-12-25T10:29:16.392Z,7.35
2022-12-25T10:31:50.056Z,7.34
2022-12-25T10:34:17.943Z,7.37
2022-12-25T10:36:46.771Z,7.35
2022-12-25T10:39:21.785Z,7.35
2022-12-25T10:42:25.353Z,7.31
2022-12-25T10:45:03.738Z,7.35
2022-12-25T10:47:37.448Z,7.34
2022-12-25T10:50:13.608Z,7.36
2022-12-25T10:53:04.659Z,7.38
2022-12-25T10:55:33.372Z,7.38
2022-12-25T10:58:01.695Z,7.42
2022-12-25T11:00:31.964Z,7.44
2022-12-25T11:03:00.560Z,7.45
2022-12-25T11:05:32.118Z,7.51
2022-12-25T11:08:02.693Z,7.60
2022-12-25T11:10:43.694Z,7.65
2022-12-25T11:13:24.104Z,7.69
2022-12-25T11:16:12.151Z,7.68
2022-12-25T11:18:49.718Z,7.67
2022-12-25T11:21:27.924Z,7.66
2022-12-25T11:24:08.956Z,7.66
2022-12-25T11:26:49.615Z,7.68
2022-12-25T11:29:35.086Z,7.72
2022-12-25T11:32:05.971Z,7.81
2022-12-25T11:34:41.342Z,7.87
2022-12-25T11:37:37.057Z,7.86
2022-12-25T11:40:07.230Z,7.90
2022-12-25T11:42:39.966Z,7.91
2022-12-25T11:45:18.310Z,7.90
2022-12-25T11:48:09.919Z,7.89
2022-12-25T11:50:48.039Z,7.94
2022-12-25T11:53:23.533Z,7.98
2022-12-25T11:55:56.180Z,8.00
2022-12-25T11:58:47.835Z,8.01
2022-12-25T12:01:44.779Z,8.04
2022-12-25T12:04:38.486Z,8.01
2022-12-25T12:07:18.992Z,8.03
2022-12-25T12:10:21.368Z,8.01
2022-12-25T12:13:17.346Z,8.04
2022-12-25T12:15:47.726Z,8.07
2022-12-25T12:18:29.589Z,8.04
2022-12-25T12:21:00.624Z,7.99
2022-12-25T12:23:33.003Z,7.96
2022-12-25T12:26:01.151Z,7.89
2022-12-25T12:28:34.225Z,7.88
2022-12-25T12:31:07.483Z,7.86
2022-12-25T12:33:42.279Z,7.90
2022-12-25T12:36:14.032Z,7.95
2022-12-25T12:38:44.140Z,7.99
2022-12-25T12:41:14.193Z,7.99
2022-12-25T12:43:49.992Z,8.01
2022-12-25T12:46:31.088Z,8.02
2022-12-25T12:49:16.296Z,8.05
2022-12-25T12:51:43.728Z,8.10
2022-12-25T12:54:23.103Z,8.15
2022-12-25T12:57:10.379Z,8.12
2022-12-25T12:59:48.038Z,8.14
2022-12-25T13:02:50.322Z,8.11
2022-12-25T13:05:50.492Z,8.11
2022-12-25T13:09:00.247Z,8.10
2022-12-25T13:11:32.189Z,8.12
2022-12-25T13:14:02.834Z,8.05
2022-12-25T13:16:39.104Z,8.04
2022-12-25T13:19:13.756Z,8.04
2022-12-25T13:21:47.910Z,8.04
2022-12-25T13:24:26.364Z,8.06
2022-12-25T13:26:54.692Z,8.07
2022-12-25T13:29:34.936Z,8.07
2022-12-25T13:32:06.999Z,8.05
2022-12-25T13:34:38.783Z,8.05
2022-12-25T13:37:19.536Z,8.03
2022-12-25T13:40:00.455Z,8.04
2022-12-25T13:42:35.867Z,8.06
2022-12-25T13:45:26.822Z,8.09
2022-12-25T13:47:55.734Z,8.15
2022-12-25T13:50:33.418Z,8.20
2022-12-25T13:53:15.465Z,8.27
2022-12-25T13:55:47.221Z,8.36
2022-12-25T13:58:20.218Z,8.49
2022-12-25T14:00:52.542Z,8.60
2022-12-25T14:03:36.861Z,8.66
2022-12-25T14:06:08.601Z,8.69
2022-12-25T14:08:36.571Z,8.73
2022-12-25T14:11:06.279Z,8.72
2022-12-25T14:13:38.043Z,8.73
2022-12-25T14:16:10.504Z,8.75
2022-12-25T14:18:38.292Z,8.73
2022-12-25T14:21:10.642Z,8.70
2022-12-25T14:23:45.256Z,8.67
2022-12-25T14:26:29.236Z,8.62
2022-12-25T14:29:16.488Z,8.57
2022-12-25T14:31:40.369Z,8.48
2022-12-25T14:34:19.073Z,8.35
2022-12-25T14:36:47.617Z,8.26
2022-12-25T14:39:38.159Z,8.16
2022-12-25T14:42:19.974Z,8.09
2022-12-25T14:45:09.383Z,8.05
2022-12-25T14:47:54.345Z,8.00
2022-12-25T14:50:36.916Z,7.95
2022-12-25T14:53:08.377Z,7.88
2022-12-25T14:55:37.048Z,7.81
2022-12-25T14:58:07.680Z,7.76
2022-12-25T15:00:38.312Z,7.70
2022-12-25T15:03:20.368Z,7.65
2022-12-25T15:06:07.460Z,7.60
2022-12-25T15:08:35.308Z,7.58
2022-12-25T15:11:03.691Z,7.54
2022-12-25T15:13:32.113Z,7.49
2022-12-25T15:16:05.465Z,7.45
2022-12-25T15:18:40.843Z,7.43
2022-12-25T15:21:23.256Z,7.42
2022-12-25T15:23:54.578Z,7.41
2022-12-25T15:26:22.662Z,7.35
2022-12-25T15:28:50.255Z,7.28
2022-12-25T15:31:28.159Z,7.22
2022-12-25T15:33:59.000Z,7.17
2022-12-25T15:36:27.299Z,7.12
2022-12-25T15:38:55.917Z,7.06
2022-12-25T15:41:54.799Z,7.00
2022-12-25T15:44:24.138Z,6.92
2022-12-25T15:46:52.216Z,6.80
2022-12-25T15:49:20.038Z,6.71
2022-12-25T15:51:47.936Z,6.59
2022-12-25T15:54:15.897Z,6.45
2022-12-25T15:56:50.506Z,6.35
2022-12-25T15:59:20.171Z,6.27
2022-12-25T16:01:54.838Z,6.19
2022-12-25T16:04:24.149Z,6.12
2022-12-25T16:06:52.543Z,6.06
2022-12-25T16:09:21.541Z,5.99
2022-12-25T16:11:49.529Z,5.89
2022-12-25T16:14:18.935Z,5.77
2022-12-25T16:16:46.696Z,5.69
2022-12-25T16:19:14.188Z,5.59
2022-12-25T16:21:45.341Z,5.53
2022-12-25T16:24:13.674Z,5.46
2022-12-25T16:26:42.010Z,5.39
2022-12-25T16:29:09.904Z,5.33
2022-12-25T16:31:38.031Z,5.27
2022-12-25T16:34:07.588Z,5.18
2022-12-25T16:36:36.589Z,5.09
2022-12-25T16:39:05.031Z,5.00
2022-12-25T16:41:32.650Z,4.93
2022-12-25T16:44:07.380Z,4.88
2022-12-25T16:46:36.309Z,4.82
2022-12-25T16:49:04.084Z,4.76
2022-12-25T16:51:32.103Z,4.76
2022-12-25T16:53:59.791Z,4.77
2022-12-25T16:56:28.732Z,4.76
2022-12-25T16:58:57.829Z,4.75
2022-12-25T17:01:26.116Z,4.73
2022-12-25T17:03:54.216Z,4.72
2022-12-25T17:06:27.846Z,4.72
2022-12-25T17:08:59.186Z,4.74
2022-12-25T17:11:29.203Z,4.71
2022-12-25T17:14:01.464Z,4.65
2022-12-25T17:16:35.348Z,4.60
2022-12-25T17:19:10.526Z,4.57
2022-12-25T17:21:37.965Z,4.58
2022-12-25T17:24:06.789Z,4.54
2022-12-25T17:26:35.387Z,4.48
2022-12-25T17:29:03.455Z,4.44
2022-12-25T17:31:31.397Z,4.40
2022-12-25T17:34:02.211Z,4.33
2022-12-25T17:36:30.822Z,4.25
2022-12-25T17:39:03.840Z,4.20
2022-12-25T17:41:32.501Z,4.16
2022-12-25T17:44:00.377Z,4.15
2022-12-25T17:46:29.875Z,4.12
2022-12-25T17:49:00.687Z,4.13
2022-12-25T17:51:30.340Z,4.11
2022-12-25T17:54:02.678Z,4.09
2022-12-25T17:56:31.963Z,4.08
2022-12-25T17:59:03.992Z,4.08
2022-12-25T18:01:31.569Z,4.08
2022-12-25T18:03:59.997Z,4.10
2022-12-25T18:06:29.088Z,4.11
2022-12-25T18:08:58.252Z,4.10
2022-12-25T18:11:31.000Z,4.10
2022-12-25T18:14:02.172Z,4.09
2022-12-25T18:16:33.013Z,4.09
2022-12-25T18:19:00.931Z,4.10
2022-12-25T18:21:29.019Z,4.15
2022-12-25T18:23:56.634Z,4.22
2022-12-25T18:26:25.462Z,4.31
2022-12-25T18:28:53.191Z,4.39
2022-12-25T18:31:23.877Z,4.45
2022-12-25T18:33:52.755Z,4.54
2022-12-25T18:36:24.024Z,4.62
2022-12-25T18:38:53.790Z,4.72
2022-12-25T18:41:23.448Z,4.83
2022-12-25T18:43:55.227Z,4.87
2022-12-25T18:46:23.470Z,4.87
2022-12-25T18:48:51.826Z,4.87
2022-12-25T18:51:19.510Z,4.87
2022-12-25T18:53:47.013Z,4.85
2022-12-25T18:56:17.286Z,4.83
2022-12-25T18:58:47.134Z,4.82
2022-12-25T19:01:19.489Z,4.82
2022-12-25T19:03:49.600Z,4.79
2022-12-25T19:06:27.210Z,4.78
2022-12-25T19:08:55.954Z,4.74
2022-12-25T19:11:23.736Z,4.69
2022-12-25T19:13:51.460Z,4.64
2022-12-25T19:16:19.549Z,4.60
2022-12-25T19:18:47.420Z,4.55
2022-12-25T19:21:15.593Z,4.51
2022-12-25T19:23:43.960Z,4.46
2022-12-25T19:26:11.983Z,4.40
2022-12-25T19:28:40.930Z,4.36
2022-12-25T19:31:09.984Z,4.33
2022-12-25T19:33:43.165Z,4.28
2022-12-25T19:36:14.198Z,4.21
2022-12-25T19:38:43.544Z,4.16
2022-12-25T19:41:18.062Z,4.13
2022-12-25T19:43:47.832Z,4.11
2022-12-25T19:46:21.131Z,4.09
2022-12-25T19:48:49.088Z,4.06
2022-12-25T19:51:27.370Z,4.03
2022-12-25T19:53:58.628Z,4.01
2022-12-25T19:56:28.296Z,4.02
2022-12-25T19:58:56.841Z,4.03
2022-12-25T20:01:27.675Z,4.03
2022-12-25T20:03:55.437Z,4.04
2022-12-25T20:06:28.101Z,4.04
2022-12-25T20:09:00.858Z,4.08
2022-12-25T20:11:30.514Z,4.15
2022-12-25T20:13:58.927Z,4.21
2022-12-25T20:16:27.044Z,4.22
2022-12-25T20:18:55.997Z,4.26
2022-12-25T20:21:24.131Z,4.24
2022-12-25T20:23:54.007Z,4.23
2022-12-25T20:26:25.821Z,4.19
2022-12-25T20:28:54.090Z,4.15
2022-12-25T20:31:29.078Z,4.09
2022-12-25T20:34:00.745Z,4.02
2022-12-25T20:36:34.640Z,3.93
2022-12-25T20:38:58.164Z,3.87
2022-12-25T20:41:27.918Z,3.82
2022-12-25T20:43:55.778Z,3.77
2022-12-25T20:46:24.885Z,3.70
2022-12-25T20:48:53.216Z,3.63
2022-12-25T20:51:24.600Z,3.53
2022-12-25T20:53:54.279Z,3.48
2022-12-25T20:56:25.098Z,3.46
2022-12-25T20:58:57.075Z,3.47
2022-12-25T21:01:24.984Z,3.50
2022-12-25T21:03:53.667Z,3.52
2022-12-25T21:06:22.366Z,3.55
2022-12-25T21:08:49.990Z,3.55
2022-12-25T21:11:17.720Z,3.53
2022-12-25T21:13:46.274Z,3.46
2022-12-25T21:16:19.595Z,3.43
2022-12-25T21:18:48.941Z,3.42
2022-12-25T21:21:16.730Z,3.43
2022-12-25T21:23:45.058Z,3.41
2022-12-25T21:26:23.838Z,3.37
2022-12-25T21:28:55.544Z,3.32
2022-12-25T21:31:24.753Z,3.27
2022-12-25T21:33:54.650Z,3.25
2022-12-25T21:36:29.841Z,3.24
2022-12-25T21:39:05.191Z,3.20
2022-12-25T21:41:36.578Z,3.17
2022-12-25T21:44:05.662Z,3.16
2022-12-25T21:46:33.563Z,3.16
2022-12-25T21:49:01.349Z,3.19
2022-12-25T21:51:52.972Z,3.24
2022-12-25T21:54:23.045Z,3.26
2022-12-25T21:56:50.678Z,3.31
2022-12-25T21:59:21.377Z,3.38
2022-12-25T22:01:51.422Z,3.48
2022-12-25T22:04:22.650Z,3.56
2022-12-25T22:07:08.874Z,3.61
2022-12-25T22:09:37.472Z,3.61
2022-12-25T22:12:27.363Z,3.61
2022-12-25T22:14:57.093Z,3.61
2022-12-25T22:17:50.470Z,3.60
2022-12-25T22:20:23.374Z,3.57
2022-12-25T22:22:51.720Z,3.57
2022-12-25T22:25:20.222Z,3.57
2022-12-25T22:27:48.984Z,3.56
2022-12-25T22:30:26.265Z,3.52
2022-12-25T22:32:54.445Z,3.48
2022-12-25T22:35:21.994Z,3.44
2022-12-25T22:37:49.995Z,3.42
2022-12-25T22:40:20.061Z,3.38
2022-12-25T22:42:47.931Z,3.38
2022-12-25T22:45:15.688Z,3.38
2022-12-25T22:47:43.352Z,3.38
2022-12-25T22:50:16.650Z,3.39
2022-12-25T22:52:45.199Z,3.39
2022-12-25T22:55:17.446Z,3.36
2022-12-25T22:57:45.097Z,3.35
2022-12-25T23:00:13.859Z,3.36
2022-12-25T23:02:41.834Z,3.37
2022-12-25T23:05:09.694Z,3.40
2022-12-25T23:07:37.406Z,3.41
2022-12-25T23:10:07.050Z,3.44
2022-12-25T23:12:53.020Z,3.45
2022-12-25T23:15:20.907Z,3.44
2022-12-25T23:18:07.019Z,3.43
2022-12-25T23:20:54.917Z,3.51
2022-12-25T23:23:41.866Z,3.55
2022-12-25T23:26:11.757Z,3.62
2022-12-25T23:29:01.167Z,3.67
2022-12-25T23:31:34.018Z,3.72
2022-12-25T23:34:02.345Z,3.76
2022-12-25T23:36:30.039Z,3.83
2022-12-25T23:39:03.104Z,3.90
2022-12-25T23:41:27.197Z,3.98
2022-12-25T23:43:55.139Z,4.03
2022-12-25T23:46:22.555Z,4.05
2022-12-25T23:48:50.130Z,4.09
2022-12-25T23:51:17.707Z,4.11
2022-12-25T23:53:45.510Z,4.10
2022-12-25T23:56:14.174Z,4.07
2022-12-25T23:58:44.154Z,4.05
